sensor_id;sensor_type;location;lat;lon;timestamp;temperature;humidity
68257;DHT22;55069;51.568;4.656;2022-09-13T00:01:13;18.36;79.85
68257;DHT22;55069;51.568;4.656;2022-09-13T00:03:38;18.31;80.04
68257;DHT22;55069;51.568;4.656;2022-09-13T00:06:12;18.30;80.09
68257;DHT22;55069;51.568;4.656;2022-09-13T00:08:38;18.29;79.91
68257;DHT22;55069;51.568;4.656;2022-09-13T00:11:04;18.23;79.54
68257;DHT22;55069;51.568;4.656;2022-09-13T00:13:30;18.22;79.56
68257;DHT22;55069;51.568;4.656;2022-09-13T00:15:55;18.22;80.02
68257;DHT22;55069;51.568;4.656;2022-09-13T00:18:21;18.24;79.73
68257;DHT22;55069;51.568;4.656;2022-09-13T00:20:47;18.22;79.57
68257;DHT22;55069;51.568;4.656;2022-09-13T00:23:12;18.22;79.72
68257;DHT22;55069;51.568;4.656;2022-09-13T00:25:38;18.23;79.44
68257;DHT22;55069;51.568;4.656;2022-09-13T00:28:04;18.20;79.28
68257;DHT22;55069;51.568;4.656;2022-09-13T00:30:30;18.22;78.99
68257;DHT22;55069;51.568;4.656;2022-09-13T00:32:56;18.22;78.90
68257;DHT22;55069;51.568;4.656;2022-09-13T00:35:22;18.23;78.69
68257;DHT22;55069;51.568;4.656;2022-09-13T00:37:48;18.23;78.71
68257;DHT22;55069;51.568;4.656;2022-09-13T00:40:14;18.22;78.60
68257;DHT22;55069;51.568;4.656;2022-09-13T00:42:40;18.20;78.50
68257;DHT22;55069;51.568;4.656;2022-09-13T00:47:40;18.17;78.98
68257;DHT22;55069;51.568;4.656;2022-09-13T00:55:37;18.18;78.94
68257;DHT22;55069;51.568;4.656;2022-09-13T00:58:10;18.17;79.19
68257;DHT22;55069;51.568;4.656;2022-09-13T01:00:39;18.18;79.14
68257;DHT22;55069;51.568;4.656;2022-09-13T01:03:08;18.20;79.17
68257;DHT22;55069;51.568;4.656;2022-09-13T01:05:39;18.20;79.01
68257;DHT22;55069;51.568;4.656;2022-09-13T01:08:07;18.16;79.04
68257;DHT22;55069;51.568;4.656;2022-09-13T01:10:37;18.18;79.03
68257;DHT22;55069;51.568;4.656;2022-09-13T01:13:11;18.17;78.83
68257;DHT22;55069;51.568;4.656;2022-09-13T01:15:42;18.16;78.60
68257;DHT22;55069;51.568;4.656;2022-09-13T01:18:08;18.22;78.49
68257;DHT22;55069;51.568;4.656;2022-09-13T01:29:09;18.23;78.90
68257;DHT22;55069;51.568;4.656;2022-09-13T01:31:57;18.20;78.56
68257;DHT22;55069;51.568;4.656;2022-09-13T01:34:56;18.22;79.07
68257;DHT22;55069;51.568;4.656;2022-09-13T01:46:08;18.17;79.22
68257;DHT22;55069;51.568;4.656;2022-09-13T01:56:37;18.14;79.13
68257;DHT22;55069;51.568;4.656;2022-09-13T01:59:31;18.16;79.19
68257;DHT22;55069;51.568;4.656;2022-09-13T02:02:16;18.13;79.64
68257;DHT22;55069;51.568;4.656;2022-09-13T02:04:55;18.14;79.77
68257;DHT22;55069;51.568;4.656;2022-09-13T02:07:29;18.12;80.00
68257;DHT22;55069;51.568;4.656;2022-09-13T02:10:04;18.12;80.36
68257;DHT22;55069;51.568;4.656;2022-09-13T02:12:33;18.13;80.43
68257;DHT22;55069;51.568;4.656;2022-09-13T02:15:10;18.12;80.17
68257;DHT22;55069;51.568;4.656;2022-09-13T02:17:40;18.16;80.28
68257;DHT22;55069;51.568;4.656;2022-09-13T02:20:16;18.14;80.53
68257;DHT22;55069;51.568;4.656;2022-09-13T02:22:48;18.14;80.51
68257;DHT22;55069;51.568;4.656;2022-09-13T02:25:18;18.17;80.96
68257;DHT22;55069;51.568;4.656;2022-09-13T02:27:47;18.14;80.99
68257;DHT22;55069;51.568;4.656;2022-09-13T02:30:14;18.16;81.10
68257;DHT22;55069;51.568;4.656;2022-09-13T02:32:53;18.14;80.61
68257;DHT22;55069;51.568;4.656;2022-09-13T02:37:57;18.14;80.11
68257;DHT22;55069;51.568;4.656;2022-09-13T02:40:27;18.13;79.93
68257;DHT22;55069;51.568;4.656;2022-09-13T02:43:04;18.16;79.71
68257;DHT22;55069;51.568;4.656;2022-09-13T02:45:42;18.17;79.50
68257;DHT22;55069;51.568;4.656;2022-09-13T02:48:22;18.17;79.35
68257;DHT22;55069;51.568;4.656;2022-09-13T02:53:28;18.14;80.08
68257;DHT22;55069;51.568;4.656;2022-09-13T02:59:08;18.13;80.34
68257;DHT22;55069;51.568;4.656;2022-09-13T03:01:38;18.10;80.30
68257;DHT22;55069;51.568;4.656;2022-09-13T03:04:05;18.10;80.47
68257;DHT22;55069;51.568;4.656;2022-09-13T03:06:32;18.07;79.87
68257;DHT22;55069;51.568;4.656;2022-09-13T03:09:00;18.07;80.70
68257;DHT22;55069;51.568;4.656;2022-09-13T03:17:01;17.95;80.99
68257;DHT22;55069;51.568;4.656;2022-09-13T03:19:40;17.96;81.08
68257;DHT22;55069;51.568;4.656;2022-09-13T03:30:33;17.90;82.01
68257;DHT22;55069;51.568;4.656;2022-09-13T03:33:16;17.86;82.19
68257;DHT22;55069;51.568;4.656;2022-09-13T03:35:53;17.87;82.65
68257;DHT22;55069;51.568;4.656;2022-09-13T03:40:55;17.86;82.34
68257;DHT22;55069;51.568;4.656;2022-09-13T03:43:43;17.83;82.66
68257;DHT22;55069;51.568;4.656;2022-09-13T03:46:29;17.83;83.03
68257;DHT22;55069;51.568;4.656;2022-09-13T03:48:59;17.82;83.21
68257;DHT22;55069;51.568;4.656;2022-09-13T03:51:27;17.75;82.62
68257;DHT22;55069;51.568;4.656;2022-09-13T03:53:55;17.69;82.48
68257;DHT22;55069;51.568;4.656;2022-09-13T03:56:22;17.66;82.55
68257;DHT22;55069;51.568;4.656;2022-09-13T03:58:48;17.64;82.84
68257;DHT22;55069;51.568;4.656;2022-09-13T04:01:20;17.61;82.96
68257;DHT22;55069;51.568;4.656;2022-09-13T04:03:46;17.57;82.74
68257;DHT22;55069;51.568;4.656;2022-09-13T04:06:12;17.52;82.31
68257;DHT22;55069;51.568;4.656;2022-09-13T04:08:37;17.52;82.61
68257;DHT22;55069;51.568;4.656;2022-09-13T04:11:04;17.51;82.72
68257;DHT22;55069;51.568;4.656;2022-09-13T04:13:29;17.48;82.71
68257;DHT22;55069;51.568;4.656;2022-09-13T04:16:00;17.41;83.03
68257;DHT22;55069;51.568;4.656;2022-09-13T04:18:27;17.39;83.11
68257;DHT22;55069;51.568;4.656;2022-09-13T04:20:54;17.35;82.80
68257;DHT22;55069;51.568;4.656;2022-09-13T04:23:21;17.30;82.83
68257;DHT22;55069;51.568;4.656;2022-09-13T04:25:46;17.26;82.96
68257;DHT22;55069;51.568;4.656;2022-09-13T04:28:12;17.24;83.44
68257;DHT22;55069;51.568;4.656;2022-09-13T04:30:38;17.18;83.75
68257;DHT22;55069;51.568;4.656;2022-09-13T04:33:03;17.14;83.36
68257;DHT22;55069;51.568;4.656;2022-09-13T04:35:29;17.09;83.97
68257;DHT22;55069;51.568;4.656;2022-09-13T04:37:55;17.09;84.09
68257;DHT22;55069;51.568;4.656;2022-09-13T04:40:22;17.03;84.10
68257;DHT22;55069;51.568;4.656;2022-09-13T04:42:48;16.99;84.24
68257;DHT22;55069;51.568;4.656;2022-09-13T04:45:13;17.00;84.40
68257;DHT22;55069;51.568;4.656;2022-09-13T04:47:39;16.97;84.30
68257;DHT22;55069;51.568;4.656;2022-09-13T04:50:05;16.94;84.48
68257;DHT22;55069;51.568;4.656;2022-09-13T04:52:32;16.96;84.55
68257;DHT22;55069;51.568;4.656;2022-09-13T04:54:57;16.97;84.50
68257;DHT22;55069;51.568;4.656;2022-09-13T04:57:29;16.96;84.13
68257;DHT22;55069;51.568;4.656;2022-09-13T04:59:54;16.91;84.61
68257;DHT22;55069;51.568;4.656;2022-09-13T05:02:20;16.87;84.68
68257;DHT22;55069;51.568;4.656;2022-09-13T05:04:45;16.84;84.86
68257;DHT22;55069;51.568;4.656;2022-09-13T05:07:11;16.86;84.91
68257;DHT22;55069;51.568;4.656;2022-09-13T05:09:36;16.90;85.08
68257;DHT22;55069;51.568;4.656;2022-09-13T05:12:02;16.94;85.24
68257;DHT22;55069;51.568;4.656;2022-09-13T05:14:28;17.03;84.74
68257;DHT22;55069;51.568;4.656;2022-09-13T05:16:53;17.03;84.44
68257;DHT22;55069;51.568;4.656;2022-09-13T05:19:19;17.04;84.27
68257;DHT22;55069;51.568;4.656;2022-09-13T05:21:45;17.10;84.28
68257;DHT22;55069;51.568;4.656;2022-09-13T05:24:10;17.13;84.31
68257;DHT22;55069;51.568;4.656;2022-09-13T05:26:36;17.18;84.33
68257;DHT22;55069;51.568;4.656;2022-09-13T05:29:03;17.23;84.46
68257;DHT22;55069;51.568;4.656;2022-09-13T05:31:34;17.27;83.80
68257;DHT22;55069;51.568;4.656;2022-09-13T05:34:09;17.28;83.83
68257;DHT22;55069;51.568;4.656;2022-09-13T05:36:35;17.31;83.88
68257;DHT22;55069;51.568;4.656;2022-09-13T05:39:01;17.34;84.01
68257;DHT22;55069;51.568;4.656;2022-09-13T05:41:27;17.35;83.71
68257;DHT22;55069;51.568;4.656;2022-09-13T05:43:52;17.37;83.69
68257;DHT22;55069;51.568;4.656;2022-09-13T05:46:20;17.39;83.83
68257;DHT22;55069;51.568;4.656;2022-09-13T05:48:46;17.44;83.58
68257;DHT22;55069;51.568;4.656;2022-09-13T05:51:20;17.47;83.66
68257;DHT22;55069;51.568;4.656;2022-09-13T05:53:48;17.51;83.45
68257;DHT22;55069;51.568;4.656;2022-09-13T05:56:22;17.52;83.72
68257;DHT22;55069;51.568;4.656;2022-09-13T05:58:49;17.55;84.40
68257;DHT22;55069;51.568;4.656;2022-09-13T06:01:17;17.58;84.09
68257;DHT22;55069;51.568;4.656;2022-09-13T06:03:46;17.64;83.79
68257;DHT22;55069;51.568;4.656;2022-09-13T06:06:12;17.68;83.63
68257;DHT22;55069;51.568;4.656;2022-09-13T06:08:38;17.75;83.54
68257;DHT22;55069;51.568;4.656;2022-09-13T06:11:06;17.78;83.52
68257;DHT22;55069;51.568;4.656;2022-09-13T06:13:33;17.82;83.95
68257;DHT22;55069;51.568;4.656;2022-09-13T06:16:01;17.86;83.97
68257;DHT22;55069;51.568;4.656;2022-09-13T06:18:27;17.92;84.06
68257;DHT22;55069;51.568;4.656;2022-09-13T06:21:04;17.95;84.47
68257;DHT22;55069;51.568;4.656;2022-09-13T06:23:30;18.00;84.98
68257;DHT22;55069;51.568;4.656;2022-09-13T06:26:16;18.07;85.09
68257;DHT22;55069;51.568;4.656;2022-09-13T06:28:42;18.16;85.66
68257;DHT22;55069;51.568;4.656;2022-09-13T06:31:12;18.22;86.01
68257;DHT22;55069;51.568;4.656;2022-09-13T06:33:40;18.27;86.32
68257;DHT22;55069;51.568;4.656;2022-09-13T06:36:09;18.34;86.55
68257;DHT22;55069;51.568;4.656;2022-09-13T06:38:35;18.40;86.45
68257;DHT22;55069;51.568;4.656;2022-09-13T06:43:32;18.55;86.37
68257;DHT22;55069;51.568;4.656;2022-09-13T06:46:01;18.60;86.27
68257;DHT22;55069;51.568;4.656;2022-09-13T06:48:31;18.71;86.14
68257;DHT22;55069;51.568;4.656;2022-09-13T06:51:02;18.78;85.96
68257;DHT22;55069;51.568;4.656;2022-09-13T06:53:29;18.84;86.05
68257;DHT22;55069;51.568;4.656;2022-09-13T06:58:35;18.99;85.50
68257;DHT22;55069;51.568;4.656;2022-09-13T07:01:13;19.06;85.41
68257;DHT22;55069;51.568;4.656;2022-09-13T07:03:48;19.15;84.85
68257;DHT22;55069;51.568;4.656;2022-09-13T07:06:22;19.23;84.91
68257;DHT22;55069;51.568;4.656;2022-09-13T07:08:50;19.33;84.72
68257;DHT22;55069;51.568;4.656;2022-09-13T07:11:17;19.43;84.73
68257;DHT22;55069;51.568;4.656;2022-09-13T07:13:50;19.50;84.95
68257;DHT22;55069;51.568;4.656;2022-09-13T07:16:17;19.63;84.63
68257;DHT22;55069;51.568;4.656;2022-09-13T07:18:43;19.73;84.22
68257;DHT22;55069;51.568;4.656;2022-09-13T07:21:10;19.79;84.12
68257;DHT22;55069;51.568;4.656;2022-09-13T07:23:38;19.88;83.99
68257;DHT22;55069;51.568;4.656;2022-09-13T07:26:05;19.96;84.01
68257;DHT22;55069;51.568;4.656;2022-09-13T07:28:34;20.05;83.96
68257;DHT22;55069;51.568;4.656;2022-09-13T07:31:23;20.16;83.30
68257;DHT22;55069;51.568;4.656;2022-09-13T07:33:57;20.25;83.16
68257;DHT22;55069;51.568;4.656;2022-09-13T07:36:23;20.28;83.14
68257;DHT22;55069;51.568;4.656;2022-09-13T07:38:49;20.32;83.12
68257;DHT22;55069;51.568;4.656;2022-09-13T07:41:23;20.37;83.26
68257;DHT22;55069;51.568;4.656;2022-09-13T07:43:49;20.46;82.58
68257;DHT22;55069;51.568;4.656;2022-09-13T07:46:26;20.60;82.55
68257;DHT22;55069;51.568;4.656;2022-09-13T07:48:54;20.66;82.48
68257;DHT22;55069;51.568;4.656;2022-09-13T07:51:22;20.79;82.13
68257;DHT22;55069;51.568;4.656;2022-09-13T07:53:49;20.87;81.07
68257;DHT22;55069;51.568;4.656;2022-09-13T07:56:20;20.95;81.22
68257;DHT22;55069;51.568;4.656;2022-09-13T07:58:47;21.00;80.91
68257;DHT22;55069;51.568;4.656;2022-09-13T08:01:19;21.09;80.72
68257;DHT22;55069;51.568;4.656;2022-09-13T08:03:57;21.15;80.48
68257;DHT22;55069;51.568;4.656;2022-09-13T08:06:24;21.15;80.79
68257;DHT22;55069;51.568;4.656;2022-09-13T08:08:51;21.31;80.40
68257;DHT22;55069;51.568;4.656;2022-09-13T08:11:21;21.34;80.45
68257;DHT22;55069;51.568;4.656;2022-09-13T08:13:49;21.38;80.55
68257;DHT22;55069;51.568;4.656;2022-09-13T08:16:17;21.36;81.40
68257;DHT22;55069;51.568;4.656;2022-09-13T08:18:44;21.45;81.01
68257;DHT22;55069;51.568;4.656;2022-09-13T08:21:10;21.53;80.69
68257;DHT22;55069;51.568;4.656;2022-09-13T08:23:36;21.46;80.66
68257;DHT22;55069;51.568;4.656;2022-09-13T08:26:02;21.56;80.50
68257;DHT22;55069;51.568;4.656;2022-09-13T08:28:28;21.65;80.14
68257;DHT22;55069;51.568;4.656;2022-09-13T08:30:54;21.73;80.23
68257;DHT22;55069;51.568;4.656;2022-09-13T08:33:20;21.92;79.52
68257;DHT22;55069;51.568;4.656;2022-09-13T08:35:50;22.07;78.21
68257;DHT22;55069;51.568;4.656;2022-09-13T08:38:16;22.20;77.64
68257;DHT22;55069;51.568;4.656;2022-09-13T08:40:46;22.34;78.03
68257;DHT22;55069;51.568;4.656;2022-09-13T08:48:41;22.48;77.23
68257;DHT22;55069;51.568;4.656;2022-09-13T08:51:31;22.28;77.45
68257;DHT22;55069;51.568;4.656;2022-09-13T08:53:59;22.31;77.73
68257;DHT22;55069;51.568;4.656;2022-09-13T08:56:35;22.35;77.29
68257;DHT22;55069;51.568;4.656;2022-09-13T09:02:43;22.22;77.15
68257;DHT22;55069;51.568;4.656;2022-09-13T09:05:18;22.30;76.95
68257;DHT22;55069;51.568;4.656;2022-09-13T09:07:46;22.21;77.40
68257;DHT22;55069;51.568;4.656;2022-09-13T09:10:19;22.25;77.51
68257;DHT22;55069;51.568;4.656;2022-09-13T09:13:34;22.35;78.09
68257;DHT22;55069;51.568;4.656;2022-09-13T09:15:50;22.32;78.18
68257;DHT22;55069;51.568;4.656;2022-09-13T09:18:28;22.49;76.96
68257;DHT22;55069;51.568;4.656;2022-09-13T09:20:56;22.66;76.80
68257;DHT22;55069;51.568;4.656;2022-09-13T09:23:43;22.73;75.93
68257;DHT22;55069;51.568;4.656;2022-09-13T09:26:21;22.72;76.08
68257;DHT22;55069;51.568;4.656;2022-09-13T09:28:50;22.69;75.89
68257;DHT22;55069;51.568;4.656;2022-09-13T09:33:55;22.89;76.50
68257;DHT22;55069;51.568;4.656;2022-09-13T09:36:36;23.04;75.34
68257;DHT22;55069;51.568;4.656;2022-09-13T09:39:05;23.04;74.50
68257;DHT22;55069;51.568;4.656;2022-09-13T09:41:33;23.03;75.07
68257;DHT22;55069;51.568;4.656;2022-09-13T09:44:18;23.03;74.16
68257;DHT22;55069;51.568;4.656;2022-09-13T09:46:51;23.18;74.42
68257;DHT22;55069;51.568;4.656;2022-09-13T09:49:26;23.24;75.04
68257;DHT22;55069;51.568;4.656;2022-09-13T09:52:17;23.30;74.02
68257;DHT22;55069;51.568;4.656;2022-09-13T09:54:43;23.48;72.78
68257;DHT22;55069;51.568;4.656;2022-09-13T09:57:12;23.76;72.45
68257;DHT22;55069;51.568;4.656;2022-09-13T09:59:38;23.95;72.39
68257;DHT22;55069;51.568;4.656;2022-09-13T10:02:18;24.34;70.78
68257;DHT22;55069;51.568;4.656;2022-09-13T10:04:59;24.57;69.82
68257;DHT22;55069;51.568;4.656;2022-09-13T10:07:31;24.05;69.38
68257;DHT22;55069;51.568;4.656;2022-09-13T10:09:59;24.09;68.52
68257;DHT22;55069;51.568;4.656;2022-09-13T10:12:31;24.20;70.26
68257;DHT22;55069;51.568;4.656;2022-09-13T10:17:30;24.54;67.94
68257;DHT22;55069;51.568;4.656;2022-09-13T10:22:28;24.44;69.68
68257;DHT22;55069;51.568;4.656;2022-09-13T10:24:54;24.40;67.28
68257;DHT22;55069;51.568;4.656;2022-09-13T10:27:34;24.44;68.95
68257;DHT22;55069;51.568;4.656;2022-09-13T10:30:01;24.26;69.52
68257;DHT22;55069;51.568;4.656;2022-09-13T10:32:28;24.14;69.56
68257;DHT22;55069;51.568;4.656;2022-09-13T10:34:55;24.16;69.89
68257;DHT22;55069;51.568;4.656;2022-09-13T10:37:29;24.09;70.87
68257;DHT22;55069;51.568;4.656;2022-09-13T10:42:28;24.40;69.85
68257;DHT22;55069;51.568;4.656;2022-09-13T10:45:04;24.49;69.65
68257;DHT22;55069;51.568;4.656;2022-09-13T10:47:38;24.30;68.93
68257;DHT22;55069;51.568;4.656;2022-09-13T10:50:20;24.40;68.61
68257;DHT22;55069;51.568;4.656;2022-09-13T10:52:48;24.82;68.56
68257;DHT22;55069;51.568;4.656;2022-09-13T10:57:46;25.46;66.74
68257;DHT22;55069;51.568;4.656;2022-09-13T11:00:20;25.75;65.38
68257;DHT22;55069;51.568;4.656;2022-09-13T11:05:52;25.50;64.41
68257;DHT22;55069;51.568;4.656;2022-09-13T11:13:28;24.85;65.87
68257;DHT22;55069;51.568;4.656;2022-09-13T11:26:51;25.11;67.39
68257;DHT22;55069;51.568;4.656;2022-09-13T11:32:12;24.56;69.74
68257;DHT22;55069;51.568;4.656;2022-09-13T11:34:48;24.29;71.00
68257;DHT22;55069;51.568;4.656;2022-09-13T11:43:27;24.37;68.85
68257;DHT22;55069;51.568;4.656;2022-09-13T11:51:50;24.81;68.00
68257;DHT22;55069;51.568;4.656;2022-09-13T11:54:25;25.09;66.83
68257;DHT22;55069;51.568;4.656;2022-09-13T11:57:04;25.46;64.92
68257;DHT22;55069;51.568;4.656;2022-09-13T11:59:46;25.62;65.05
68257;DHT22;55069;51.568;4.656;2022-09-13T12:02:31;25.88;64.13
68257;DHT22;55069;51.568;4.656;2022-09-13T12:10:14;26.15;64.69
68257;DHT22;55069;51.568;4.656;2022-09-13T12:12:41;26.09;63.11
68257;DHT22;55069;51.568;4.656;2022-09-13T12:15:35;25.94;65.21
68257;DHT22;55069;51.568;4.656;2022-09-13T12:18:18;25.39;66.80
68257;DHT22;55069;51.568;4.656;2022-09-13T12:20:49;25.22;67.41
68257;DHT22;55069;51.568;4.656;2022-09-13T12:23:30;25.02;67.71
68257;DHT22;55069;51.568;4.656;2022-09-13T12:26:04;25.15;67.34
68257;DHT22;55069;51.568;4.656;2022-09-13T12:28:40;24.79;67.28
68257;DHT22;55069;51.568;4.656;2022-09-13T12:31:12;24.89;67.44
68257;DHT22;55069;51.568;4.656;2022-09-13T12:33:41;25.12;67.18
68257;DHT22;55069;51.568;4.656;2022-09-13T12:52:35;25.67;65.91
68257;DHT22;55069;51.568;4.656;2022-09-13T13:00:33;25.77;65.48
68257;DHT22;55069;51.568;4.656;2022-09-13T13:03:12;26.02;64.60
68257;DHT22;55069;51.568;4.656;2022-09-13T13:05:46;25.95;64.46
68257;DHT22;55069;51.568;4.656;2022-09-13T13:11:09;25.63;65.76
68257;DHT22;55069;51.568;4.656;2022-09-13T13:13:38;25.98;63.90
68257;DHT22;55069;51.568;4.656;2022-09-13T13:18:50;26.06;63.68
68257;DHT22;55069;51.568;4.656;2022-09-13T13:32:25;25.57;66.09
68257;DHT22;55069;51.568;4.656;2022-09-13T13:34:40;25.67;65.20
68257;DHT22;55069;51.568;4.656;2022-09-13T13:42:25;25.47;64.15
68257;DHT22;55069;51.568;4.656;2022-09-13T13:49:44;25.35;65.26
68257;DHT22;55069;51.568;4.656;2022-09-13T13:55:01;25.11;66.41
68257;DHT22;55069;51.568;4.656;2022-09-13T13:58:25;25.09;65.69
68257;DHT22;55069;51.568;4.656;2022-09-13T14:00:28;24.99;66.28
68257;DHT22;55069;51.568;4.656;2022-09-13T14:23:46;25.01;66.63
68257;DHT22;55069;51.568;4.656;2022-09-13T14:26:12;24.95;66.19
68257;DHT22;55069;51.568;4.656;2022-09-13T14:28:38;24.91;66.49
68257;DHT22;55069;51.568;4.656;2022-09-13T14:31:04;24.77;66.69
68257;DHT22;55069;51.568;4.656;2022-09-13T14:33:35;24.60;67.57
68257;DHT22;55069;51.568;4.656;2022-09-13T14:36:06;24.57;67.13
68257;DHT22;55069;51.568;4.656;2022-09-13T14:38:34;24.50;67.76
68257;DHT22;55069;51.568;4.656;2022-09-13T14:41:13;24.60;68.21
68257;DHT22;55069;51.568;4.656;2022-09-13T14:43:39;24.31;68.57
68257;DHT22;55069;51.568;4.656;2022-09-13T14:48:47;24.13;69.23
68257;DHT22;55069;51.568;4.656;2022-09-13T14:51:27;24.10;68.91
68257;DHT22;55069;51.568;4.656;2022-09-13T14:53:59;24.16;68.30
68257;DHT22;55069;51.568;4.656;2022-09-13T14:58:59;23.92;69.27
68257;DHT22;55069;51.568;4.656;2022-09-13T15:01:29;24.06;69.76
68257;DHT22;55069;51.568;4.656;2022-09-13T15:03:56;24.12;68.91
68257;DHT22;55069;51.568;4.656;2022-09-13T15:06:34;24.03;68.14
68257;DHT22;55069;51.568;4.656;2022-09-13T15:14:27;23.68;68.94
68257;DHT22;55069;51.568;4.656;2022-09-13T15:19:48;23.61;69.50
68257;DHT22;55069;51.568;4.656;2022-09-13T15:24:51;23.53;69.05
68257;DHT22;55069;51.568;4.656;2022-09-13T15:27:26;23.36;69.80
68257;DHT22;55069;51.568;4.656;2022-09-13T15:30:00;23.30;69.55
68257;DHT22;55069;51.568;4.656;2022-09-13T15:32:30;23.11;70.14
68257;DHT22;55069;51.568;4.656;2022-09-13T15:34:58;23.04;70.25
68257;DHT22;55069;51.568;4.656;2022-09-13T15:37:33;22.96;70.72
68257;DHT22;55069;51.568;4.656;2022-09-13T15:40:19;22.86;70.23
68257;DHT22;55069;51.568;4.656;2022-09-13T15:42:50;22.79;70.72
68257;DHT22;55069;51.568;4.656;2022-09-13T15:45:18;22.69;70.84
68257;DHT22;55069;51.568;4.656;2022-09-13T15:47:46;22.61;70.78
68257;DHT22;55069;51.568;4.656;2022-09-13T15:50:21;22.58;70.88
68257;DHT22;55069;51.568;4.656;2022-09-13T15:52:46;22.62;70.19
68257;DHT22;55069;51.568;4.656;2022-09-13T15:55:12;22.61;70.37
68257;DHT22;55069;51.568;4.656;2022-09-13T15:57:38;22.52;70.80
68257;DHT22;55069;51.568;4.656;2022-09-13T16:00:05;22.51;70.73
68257;DHT22;55069;51.568;4.656;2022-09-13T16:02:35;22.49;70.12
68257;DHT22;55069;51.568;4.656;2022-09-13T16:05:00;22.49;70.73
68257;DHT22;55069;51.568;4.656;2022-09-13T16:07:26;22.51;69.58
68257;DHT22;55069;51.568;4.656;2022-09-13T16:09:52;22.41;70.38
68257;DHT22;55069;51.568;4.656;2022-09-13T16:12:18;22.48;69.48
68257;DHT22;55069;51.568;4.656;2022-09-13T16:14:46;22.28;70.14
68257;DHT22;55069;51.568;4.656;2022-09-13T16:19:45;22.18;70.01
68257;DHT22;55069;51.568;4.656;2022-09-13T16:22:11;22.11;70.42
68257;DHT22;55069;51.568;4.656;2022-09-13T16:24:37;22.05;69.70
68257;DHT22;55069;51.568;4.656;2022-09-13T16:27:03;21.90;68.42
68257;DHT22;55069;51.568;4.656;2022-09-13T16:29:29;21.86;69.39
68257;DHT22;55069;51.568;4.656;2022-09-13T16:31:54;21.77;69.24
68257;DHT22;55069;51.568;4.656;2022-09-13T16:34:22;21.62;69.41
68257;DHT22;55069;51.568;4.656;2022-09-13T16:36:48;21.52;69.64
68257;DHT22;55069;51.568;4.656;2022-09-13T16:39:13;21.45;71.62
68257;DHT22;55069;51.568;4.656;2022-09-13T16:41:39;21.34;70.33
68257;DHT22;55069;51.568;4.656;2022-09-13T16:44:04;21.25;71.63
68257;DHT22;55069;51.568;4.656;2022-09-13T16:46:30;21.15;72.24
68257;DHT22;55069;51.568;4.656;2022-09-13T16:48:56;21.05;70.54
68257;DHT22;55069;51.568;4.656;2022-09-13T16:51:23;21.08;73.24
68257;DHT22;55069;51.568;4.656;2022-09-13T16:53:50;21.22;74.12
68257;DHT22;55069;51.568;4.656;2022-09-13T16:56:17;21.27;74.41
68257;DHT22;55069;51.568;4.656;2022-09-13T16:58:44;21.31;72.78
68257;DHT22;55069;51.568;4.656;2022-09-13T17:01:15;21.31;72.79
68257;DHT22;55069;51.568;4.656;2022-09-13T17:03:41;21.22;71.65
68257;DHT22;55069;51.568;4.656;2022-09-13T17:06:11;21.18;71.44
68257;DHT22;55069;51.568;4.656;2022-09-13T17:08:38;21.05;70.38
68257;DHT22;55069;51.568;4.656;2022-09-13T17:11:05;21.00;71.00
68257;DHT22;55069;51.568;4.656;2022-09-13T17:13:32;20.90;70.57
68257;DHT22;55069;51.568;4.656;2022-09-13T17:15:57;20.79;72.96
68257;DHT22;55069;51.568;4.656;2022-09-13T17:18:23;20.73;72.67
68257;DHT22;55069;51.568;4.656;2022-09-13T17:20:49;20.60;72.55
68257;DHT22;55069;51.568;4.656;2022-09-13T17:23:15;20.50;73.98
68257;DHT22;55069;51.568;4.656;2022-09-13T17:25:48;20.42;73.93
68257;DHT22;55069;51.568;4.656;2022-09-13T17:28:15;20.29;72.32
68257;DHT22;55069;51.568;4.656;2022-09-13T17:30:42;20.11;74.38
68257;DHT22;55069;51.568;4.656;2022-09-13T17:33:08;19.91;74.52
68257;DHT22;55069;51.568;4.656;2022-09-13T17:35:34;19.71;73.64
68257;DHT22;55069;51.568;4.656;2022-09-13T17:38:01;19.60;75.20
68257;DHT22;55069;51.568;4.656;2022-09-13T17:40:28;19.49;77.61
68257;DHT22;55069;51.568;4.656;2022-09-13T17:42:54;19.47;77.04
68257;DHT22;55069;51.568;4.656;2022-09-13T17:45:20;19.36;77.77
68257;DHT22;55069;51.568;4.656;2022-09-13T17:47:47;19.31;77.70
68257;DHT22;55069;51.568;4.656;2022-09-13T17:50:13;19.23;78.40
68257;DHT22;55069;51.568;4.656;2022-09-13T17:52:39;19.18;78.99
68257;DHT22;55069;51.568;4.656;2022-09-13T17:55:05;19.02;76.98
68257;DHT22;55069;51.568;4.656;2022-09-13T17:57:31;18.94;78.63
68257;DHT22;55069;51.568;4.656;2022-09-13T17:59:57;18.99;79.83
68257;DHT22;55069;51.568;4.656;2022-09-13T18:02:23;18.92;79.20
68257;DHT22;55069;51.568;4.656;2022-09-13T18:04:50;18.85;79.37
68257;DHT22;55069;51.568;4.656;2022-09-13T18:07:16;18.88;79.93
68257;DHT22;55069;51.568;4.656;2022-09-13T18:09:42;18.82;80.60
68257;DHT22;55069;51.568;4.656;2022-09-13T18:12:09;18.82;81.96
68257;DHT22;55069;51.568;4.656;2022-09-13T18:14:34;18.67;82.00
68257;DHT22;55069;51.568;4.656;2022-09-13T18:17:00;18.64;81.06
68257;DHT22;55069;51.568;4.656;2022-09-13T18:19:26;18.61;82.11
68257;DHT22;55069;51.568;4.656;2022-09-13T18:21:52;18.54;82.65
68257;DHT22;55069;51.568;4.656;2022-09-13T18:24:18;18.57;82.79
68257;DHT22;55069;51.568;4.656;2022-09-13T18:26:44;18.54;82.87
68257;DHT22;55069;51.568;4.656;2022-09-13T18:29:11;18.55;82.57
68257;DHT22;55069;51.568;4.656;2022-09-13T18:31:39;18.52;83.21
68257;DHT22;55069;51.568;4.656;2022-09-13T18:34:08;18.41;82.84
68257;DHT22;55069;51.568;4.656;2022-09-13T18:36:35;18.40;83.65
68257;DHT22;55069;51.568;4.656;2022-09-13T18:39:02;18.40;82.80
68257;DHT22;55069;51.568;4.656;2022-09-13T18:41:38;18.38;82.12
68257;DHT22;55069;51.568;4.656;2022-09-13T18:44:05;18.43;82.56
68257;DHT22;55069;51.568;4.656;2022-09-13T18:46:32;18.37;83.61
68257;DHT22;55069;51.568;4.656;2022-09-13T18:49:00;18.44;83.35
68257;DHT22;55069;51.568;4.656;2022-09-13T18:51:35;18.34;83.04
68257;DHT22;55069;51.568;4.656;2022-09-13T18:54:02;18.30;82.77
68257;DHT22;55069;51.568;4.656;2022-09-13T18:56:29;18.31;82.65
68257;DHT22;55069;51.568;4.656;2022-09-13T18:58:59;18.31;83.20
68257;DHT22;55069;51.568;4.656;2022-09-13T19:01:27;18.30;82.67
68257;DHT22;55069;51.568;4.656;2022-09-13T19:04:07;18.30;82.42
68257;DHT22;55069;51.568;4.656;2022-09-13T19:06:37;18.26;82.06
68257;DHT22;55069;51.568;4.656;2022-09-13T19:09:05;18.20;83.15
68257;DHT22;55069;51.568;4.656;2022-09-13T19:11:34;18.16;82.31
68257;DHT22;55069;51.568;4.656;2022-09-13T19:14:01;18.18;82.30
68257;DHT22;55069;51.568;4.656;2022-09-13T19:16:27;18.13;82.19
68257;DHT22;55069;51.568;4.656;2022-09-13T19:18:53;18.10;82.15
68257;DHT22;55069;51.568;4.656;2022-09-13T19:21:21;18.03;82.94